Accueil
METAR-TAF:

METAR-TAF

Aéroports :

Montpellier, France

Aéroport de Montpellier-Méditerranée

latitude: 43-35N, longitude: 003-58E, altitude: 5 m

Observation

Le bulletin a été fait il y a 11 minutes, à 08:00 UTC
Vent 15 kt de ouest/nord-ouest
Température 16°C
Humidité 55%
Pression 1024 hPa
Visibilité 10 km ou plus
pas de nuages en-dessous de 1500 mètres et pas de cumulonimbus.

METAR: LFMT 220800Z AUTO 29015KT CAVOK 16/07 Q1024 NOSIG

Heure: 10:11 (08:11 UTC)

Prévision

Le bulletin a été fait il y a 6 heures et 11 minutes, à 02:00 UTC
Prévision valable du 22 à 03 UTC au 23 à 03 UTC
Vent 12 kt de ouest/nord-ouest
Visibilité 10 km ou plus
pas de nuages en-dessous de 1500 mètres et pas de cumulonimbus.
Temporairement
du 22 à 10 UTC au 22 à 18 UTC
Vent 20 kt de nord-ouest avec des rafales jusqu'à 30 kt

TAF: LFMT 220200Z 2203/2303 30012KT CAVOK TEMPO 2210/2218 32020G30KT

Observations et prévisions météorologiques de plus de 4000 aéroports (messages METAR et TAF).

Les stations disponibles sont représentées par des disques jaunes et rouges sur la carte.

Passer la souris dessus pour voir le nom de la station.

Cliquer dessus pour voir les observations et prévisions météorologiques.

Pour changer de carte: cliquez sur les boutons verts avec une croix noire pour zoomer, sur le bouton vert avec un tiret pour effectuer un zoom arrière, ou sur les flèches vertes pour les cartes adjacentes.


METAR-TAF: